createdAt,value
2023-05-19T00:00:16.949Z,4.90
2023-05-19T00:01:19.117Z,4.50
2023-05-19T00:02:21.168Z,4.90
2023-05-19T00:03:23.104Z,4.77
2023-05-19T00:04:24.861Z,4.37
2023-05-19T00:05:28.071Z,4.53
2023-05-19T00:06:32.134Z,4.57
2023-05-19T00:07:34.681Z,4.07
2023-05-19T00:08:38.331Z,4.37
2023-05-19T00:09:40.152Z,4.50
2023-05-19T00:10:42.118Z,4.50
2023-05-19T00:11:43.990Z,4.53
2023-05-19T00:12:45.802Z,4.37
2023-05-19T00:13:49.708Z,4.40
2023-05-19T00:14:51.960Z,4.73
2023-05-19T00:15:54.046Z,4.30
2023-05-19T00:16:56.241Z,4.00
2023-05-19T00:17:58.120Z,4.50
2023-05-19T00:19:01.553Z,4.53
2023-05-19T00:20:07.470Z,4.63
2023-05-19T00:21:09.547Z,4.40
2023-05-19T00:22:11.521Z,4.00
2023-05-19T00:23:13.112Z,4.40
2023-05-19T00:24:14.733Z,4.87
2023-05-19T00:25:16.322Z,4.50
2023-05-19T00:26:18.258Z,4.80
2023-05-19T00:27:19.829Z,4.67
2023-05-19T00:28:21.368Z,5.07
2023-05-19T00:29:23.004Z,4.57
2023-05-19T00:30:24.809Z,4.77
2023-05-19T00:31:26.488Z,5.20
2023-05-19T00:32:28.079Z,5.03
2023-05-19T00:33:29.798Z,5.23
2023-05-19T00:34:31.400Z,5.37
2023-05-19T00:35:33.125Z,4.87
2023-05-19T00:36:34.748Z,5.30
2023-05-19T00:37:36.394Z,5.40
2023-05-19T00:38:38.396Z,5.23
2023-05-19T00:39:40.024Z,5.07
2023-05-19T00:40:41.711Z,4.70
2023-05-19T00:41:43.440Z,4.90
2023-05-19T00:42:45.134Z,4.60
2023-05-19T00:43:46.722Z,5.10
2023-05-19T00:44:48.315Z,5.13
2023-05-19T00:45:51.246Z,5.30
2023-05-19T00:46:52.884Z,4.73
2023-05-19T00:47:54.689Z,4.67
2023-05-19T00:48:56.376Z,5.17
2023-05-19T00:49:57.901Z,5.30
2023-05-19T00:51:04.736Z,4.53
2023-05-19T00:52:07.286Z,4.90
2023-05-19T00:53:09.307Z,5.10
2023-05-19T00:54:10.917Z,5.20
2023-05-19T00:55:14.024Z,5.63
2023-05-19T00:56:17.526Z,4.97
2023-05-19T00:57:19.393Z,5.40
2023-05-19T00:58:21.121Z,4.50
2023-05-19T00:59:22.726Z,5.37
2023-05-19T01:00:24.589Z,5.17
2023-05-19T01:01:26.849Z,4.97
2023-05-19T01:02:29.856Z,5.10
2023-05-19T01:03:35.237Z,5.63
2023-05-19T01:04:38.295Z,5.43
2023-05-19T01:05:44.893Z,5.80
2023-05-19T01:06:54.833Z,5.93
2023-05-19T01:07:56.610Z,5.37
2023-05-19T01:08:58.376Z,5.97
2023-05-19T01:10:00.335Z,6.17
2023-05-19T01:11:01.916Z,5.87
2023-05-19T01:12:04.054Z,5.87
2023-05-19T01:13:07.033Z,6.10
2023-05-19T01:14:09.154Z,5.97
2023-05-19T01:15:11.661Z,5.60
2023-05-19T01:16:16.168Z,5.93
2023-05-19T01:17:44.951Z,5.23
2023-05-19T01:19:12.675Z,5.13
2023-05-19T01:20:25.959Z,5.47
2023-05-19T01:21:51.223Z,5.60
2023-05-19T01:23:28.825Z,5.13
2023-05-19T01:25:07.054Z,5.00
2023-05-19T01:26:29.807Z,4.73
2023-05-19T01:27:34.248Z,5.30
2023-05-19T01:28:44.891Z,4.93
2023-05-19T01:30:13.497Z,5.33
2023-05-19T01:31:16.959Z,4.73
2023-05-19T01:32:21.094Z,5.20
2023-05-19T01:33:24.048Z,5.00
2023-05-19T01:34:27.452Z,4.83
2023-05-19T01:35:30.836Z,5.07
2023-05-19T01:36:33.835Z,4.87
2023-05-19T01:37:38.863Z,4.67
2023-05-19T01:38:42.614Z,5.47
2023-05-19T01:39:45.716Z,5.03
2023-05-19T01:40:49.555Z,4.67
2023-05-19T01:41:52.437Z,4.57
2023-05-19T01:42:57.687Z,4.43
2023-05-19T01:43:59.987Z,4.83
2023-05-19T01:45:02.268Z,5.07
2023-05-19T01:46:04.370Z,5.13
2023-05-19T01:47:06.361Z,4.90
2023-05-19T01:48:10.899Z,4.67
2023-05-19T01:49:13.549Z,5.20
2023-05-19T01:50:15.421Z,4.70
2023-05-19T01:51:17.108Z,4.77
2023-05-19T01:52:18.696Z,4.87
2023-05-19T01:53:20.366Z,5.33
2023-05-19T01:54:21.950Z,5.10
2023-05-19T01:55:23.901Z,4.70
2023-05-19T01:56:41.281Z,4.80
2023-05-19T01:58:17.680Z,4.40
2023-05-19T01:59:39.241Z,4.83
2023-05-19T02:00:54.273Z,4.50
2023-05-19T02:02:00.729Z,4.50
2023-05-19T02:03:23.605Z,4.70
2023-05-19T02:04:30.484Z,4.57
2023-05-19T02:05:38.314Z,4.33
2023-05-19T02:07:03.801Z,5.03
2023-05-19T02:08:37.409Z,4.83
2023-05-19T02:09:51.490Z,4.83
2023-05-19T02:11:04.223Z,4.70
2023-05-19T02:12:25.977Z,5.10
2023-05-19T02:13:32.801Z,4.83
2023-05-19T02:14:40.256Z,4.83
2023-05-19T02:15:42.496Z,4.53
2023-05-19T02:16:47.640Z,5.23
2023-05-19T02:17:54.408Z,5.40
2023-05-19T02:18:56.495Z,5.07
2023-05-19T02:19:58.143Z,4.90
2023-05-19T02:20:59.795Z,5.27
2023-05-19T02:22:01.419Z,4.80
2023-05-19T02:23:03.013Z,4.93
2023-05-19T02:24:04.804Z,4.47
2023-05-19T02:25:07.098Z,4.90
2023-05-19T02:26:08.837Z,5.13
2023-05-19T02:27:10.584Z,4.80
2023-05-19T02:28:12.161Z,5.07
2023-05-19T02:29:13.822Z,4.50
2023-05-19T02:30:15.574Z,4.90
2023-05-19T02:31:17.174Z,5.00
2023-05-19T02:32:18.966Z,5.00
2023-05-19T02:33:20.748Z,4.73
2023-05-19T02:34:22.966Z,4.40
2023-05-19T02:35:24.547Z,4.73
2023-05-19T02:36:26.672Z,4.43
2023-05-19T02:37:32.574Z,4.77
2023-05-19T02:38:34.214Z,5.40
2023-05-19T02:39:35.957Z,4.57
2023-05-19T02:40:37.538Z,5.20
2023-05-19T02:41:39.508Z,5.17
2023-05-19T02:42:41.768Z,5.33
2023-05-19T02:43:43.629Z,5.87
2023-05-19T02:44:45.260Z,5.80
2023-05-19T02:45:46.856Z,5.30
2023-05-19T02:46:48.575Z,5.83
2023-05-19T02:47:50.364Z,5.73
2023-05-19T02:48:53.411Z,5.43
2023-05-19T02:49:55.164Z,5.30
2023-05-19T02:50:56.755Z,4.70
2023-05-19T02:51:58.352Z,5.33
2023-05-19T02:52:59.932Z,5.20
2023-05-19T02:54:01.546Z,5.07
2023-05-19T02:55:03.489Z,4.53
2023-05-19T02:56:05.129Z,5.00
2023-05-19T02:57:07.158Z,5.10
2023-05-19T02:58:08.756Z,4.47
2023-05-19T02:59:10.439Z,4.70
2023-05-19T03:00:12.532Z,4.63
2023-05-19T03:01:14.162Z,4.40
2023-05-19T03:02:15.840Z,4.63
2023-05-19T03:03:18.327Z,4.10
2023-05-19T03:04:20.229Z,4.33
2023-05-19T03:05:21.859Z,5.00
2023-05-19T03:06:23.658Z,4.57
2023-05-19T03:07:25.529Z,4.20
2023-05-19T03:08:27.277Z,4.57
2023-05-19T03:09:28.884Z,4.20
2023-05-19T03:10:31.525Z,4.57
2023-05-19T03:11:33.381Z,3.60
2023-05-19T03:12:34.996Z,3.53
2023-05-19T03:13:36.734Z,3.60
2023-05-19T03:14:38.802Z,4.17
2023-05-19T03:15:42.490Z,3.90
2023-05-19T03:16:44.220Z,3.97
2023-05-19T03:17:46.077Z,4.47
2023-05-19T03:18:47.913Z,4.50
2023-05-19T03:19:49.536Z,4.13
2023-05-19T03:20:51.288Z,4.63
2023-05-19T03:21:52.834Z,4.50
2023-05-19T03:22:54.468Z,5.00
2023-05-19T03:23:56.089Z,4.87
2023-05-19T03:24:58.551Z,5.10
2023-05-19T03:26:00.168Z,5.00
2023-05-19T03:27:02.574Z,4.83
2023-05-19T03:28:04.319Z,5.33
2023-05-19T03:29:06.023Z,4.67
2023-05-19T03:30:08.248Z,4.93
2023-05-19T03:31:09.851Z,8.07
2023-05-19T03:32:11.515Z,8.83
2023-05-19T03:33:13.279Z,8.30
2023-05-19T03:34:15.002Z,8.23
2023-05-19T03:35:16.653Z,7.10
2023-05-19T03:36:18.257Z,7.13
2023-05-19T03:37:19.836Z,7.57
2023-05-19T03:38:21.463Z,8.00
2023-05-19T03:39:23.104Z,7.90
2023-05-19T03:40:24.748Z,7.57
2023-05-19T03:41:26.405Z,7.50
2023-05-19T03:42:27.990Z,7.53
2023-05-19T03:43:29.676Z,7.40
2023-05-19T03:44:31.280Z,6.57
2023-05-19T03:45:35.030Z,6.53
2023-05-19T03:46:36.594Z,6.20
2023-05-19T03:47:38.233Z,6.33
2023-05-19T03:48:39.871Z,6.40
2023-05-19T03:49:41.545Z,6.63
2023-05-19T03:50:44.622Z,5.77
2023-05-19T03:51:46.282Z,6.40
2023-05-19T03:52:48.956Z,6.80
2023-05-19T03:53:50.922Z,6.83
2023-05-19T03:54:53.016Z,6.07
2023-05-19T03:55:56.158Z,5.97
2023-05-19T03:56:58.208Z,6.37
2023-05-19T03:57:59.886Z,6.00
2023-05-19T03:59:01.568Z,5.40
2023-05-19T04:00:05.733Z,5.73
2023-05-19T04:01:07.293Z,6.07
2023-05-19T04:02:08.894Z,6.27
2023-05-19T04:03:10.798Z,6.83
2023-05-19T04:04:12.526Z,6.80
2023-05-19T04:05:14.863Z,6.47
2023-05-19T04:06:17.635Z,6.27
2023-05-19T04:07:19.391Z,6.10
2023-05-19T04:08:21.049Z,6.13
2023-05-19T04:09:24.167Z,6.40
2023-05-19T04:10:26.052Z,6.83
2023-05-19T04:11:27.697Z,6.57
2023-05-19T04:12:29.259Z,6.60
2023-05-19T04:13:33.359Z,7.17
2023-05-19T04:14:34.926Z,7.03
2023-05-19T04:15:36.504Z,6.20
2023-05-19T04:16:38.131Z,5.80
2023-05-19T04:17:40.004Z,6.03
2023-05-19T04:18:42.400Z,6.10
2023-05-19T04:19:44.105Z,5.50
2023-05-19T04:20:45.743Z,5.60
2023-05-19T04:21:47.396Z,5.60
2023-05-19T04:22:48.999Z,5.80
2023-05-19T04:23:50.551Z,5.60
2023-05-19T04:24:53.067Z,5.10
2023-05-19T04:25:55.169Z,5.80
2023-05-19T04:26:56.842Z,5.07
2023-05-19T04:27:58.867Z,4.80
2023-05-19T04:29:04.153Z,5.30
2023-05-19T04:30:06.930Z,4.67
2023-05-19T04:31:12.889Z,5.70
2023-05-19T04:32:17.641Z,5.23
2023-05-19T04:33:20.161Z,5.73
2023-05-19T04:34:21.870Z,5.37
2023-05-19T04:35:23.823Z,5.53
2023-05-19T04:36:25.525Z,5.47
2023-05-19T04:37:27.235Z,5.60
2023-05-19T04:38:30.205Z,5.20
2023-05-19T04:39:31.743Z,5.47
2023-05-19T04:40:33.493Z,4.70
2023-05-19T04:41:35.267Z,5.37
2023-05-19T04:42:36.813Z,4.63
2023-05-19T04:43:44.541Z,4.73
2023-05-19T04:44:49.316Z,4.83
2023-05-19T04:45:51.524Z,5.27
2023-05-19T04:46:54.564Z,5.73
2023-05-19T04:47:58.275Z,5.67
2023-05-19T04:49:01.368Z,5.57
2023-05-19T04:50:04.187Z,5.90
2023-05-19T04:51:07.567Z,5.47
2023-05-19T04:52:10.898Z,5.43
2023-05-19T04:53:12.547Z,5.93
2023-05-19T04:54:14.140Z,5.43
2023-05-19T04:55:15.944Z,6.27
2023-05-19T04:56:17.536Z,5.60
2023-05-19T04:57:19.187Z,5.90
2023-05-19T04:58:22.510Z,5.10
2023-05-19T04:59:24.154Z,5.77
2023-05-19T05:00:26.058Z,5.97
2023-05-19T05:01:28.053Z,5.67
2023-05-19T05:02:29.720Z,5.07
2023-05-19T05:03:33.317Z,6.80
2023-05-19T05:04:36.056Z,6.23
2023-05-19T05:05:37.677Z,6.07
2023-05-19T05:06:40.591Z,6.50
2023-05-19T05:07:43.093Z,6.20
2023-05-19T05:08:44.671Z,5.93
2023-05-19T05:09:46.244Z,6.03
2023-05-19T05:10:48.066Z,5.47
2023-05-19T05:11:50.040Z,5.57
2023-05-19T05:12:51.965Z,5.10
2023-05-19T05:13:53.882Z,5.37
2023-05-19T05:14:55.660Z,5.60
2023-05-19T05:15:57.651Z,5.93
2023-05-19T05:16:59.588Z,6.33
2023-05-19T05:18:01.622Z,6.33
2023-05-19T05:19:03.890Z,5.97
2023-05-19T05:20:06.980Z,5.63
2023-05-19T05:21:09.169Z,6.10
2023-05-19T05:22:11.084Z,5.90
2023-05-19T05:23:16.708Z,5.87
2023-05-19T05:24:18.631Z,6.07
2023-05-19T05:25:20.848Z,5.57
2023-05-19T05:26:23.393Z,5.57
2023-05-19T05:27:24.984Z,6.50
2023-05-19T05:28:26.612Z,5.67
2023-05-19T05:29:28.242Z,5.47
2023-05-19T05:30:29.808Z,6.20
2023-05-19T05:31:31.685Z,5.77
2023-05-19T05:32:33.410Z,6.17
2023-05-19T05:33:35.117Z,5.53
2023-05-19T05:34:38.166Z,6.07
2023-05-19T05:35:39.811Z,5.60
2023-05-19T05:36:41.425Z,5.57
2023-05-19T05:37:43.048Z,6.30
2023-05-19T05:38:44.905Z,5.23
2023-05-19T05:39:46.509Z,5.80
2023-05-19T05:40:48.117Z,6.10
2023-05-19T05:41:49.751Z,6.25
2023-05-19T05:42:51.427Z,5.23
2023-05-19T05:43:53.008Z,5.60
2023-05-19T05:44:54.712Z,6.00
2023-05-19T05:45:57.294Z,6.90
2023-05-19T05:46:59.219Z,7.67
2023-05-19T05:48:01.222Z,6.73
2023-05-19T05:49:03.209Z,6.63
2023-05-19T05:50:06.237Z,7.03
2023-05-19T05:51:08.261Z,6.78
2023-05-19T05:52:12.458Z,6.75
2023-05-19T05:53:21.750Z,6.45
2023-05-19T05:54:24.984Z,6.30
2023-05-19T05:55:26.989Z,6.30
2023-05-19T05:56:28.974Z,6.20
2023-05-19T05:57:30.991Z,6.60
2023-05-19T05:58:36.296Z,6.40
2023-05-19T05:59:38.921Z,5.90
2023-05-19T06:00:43.561Z,6.13
2023-05-19T06:01:45.165Z,5.78
2023-05-19T06:02:49.399Z,6.35
2023-05-19T06:03:51.397Z,5.90
2023-05-19T06:04:54.179Z,5.72
2023-05-19T06:05:55.925Z,6.33
2023-05-19T06:07:01.207Z,6.45
2023-05-19T06:08:03.261Z,6.60
2023-05-19T06:09:05.505Z,5.93
2023-05-19T06:10:08.768Z,5.95
2023-05-19T06:11:10.448Z,6.50
2023-05-19T06:12:12.110Z,6.68
2023-05-19T06:13:13.738Z,6.55
2023-05-19T06:14:15.543Z,6.43
2023-05-19T06:15:17.257Z,6.32
2023-05-19T06:16:18.925Z,6.30
2023-05-19T06:17:20.538Z,6.38
2023-05-19T06:18:22.353Z,6.38
2023-05-19T06:19:25.565Z,6.38
2023-05-19T06:20:27.396Z,6.30
2023-05-19T06:21:29.088Z,6.20
2023-05-19T06:22:30.875Z,6.65
2023-05-19T06:23:32.565Z,6.22
2023-05-19T06:24:34.165Z,6.88
2023-05-19T06:25:35.907Z,5.75
2023-05-19T06:26:37.813Z,6.45
2023-05-19T06:27:39.489Z,7.00
2023-05-19T06:28:41.114Z,6.20
2023-05-19T06:29:42.679Z,7.15
2023-05-19T06:30:44.318Z,6.57
2023-05-19T06:31:46.565Z,6.95
2023-05-19T06:32:48.260Z,6.78
2023-05-19T06:33:49.866Z,6.15
2023-05-19T06:34:54.341Z,6.28
2023-05-19T06:35:56.228Z,7.00
2023-05-19T06:36:57.836Z,6.60
2023-05-19T06:37:59.381Z,6.68
2023-05-19T06:39:02.596Z,6.78
2023-05-19T06:40:05.693Z,6.57
2023-05-19T06:41:07.265Z,6.72
2023-05-19T06:42:08.867Z,6.28
2023-05-19T06:43:10.530Z,6.72
2023-05-19T06:44:12.140Z,6.00
2023-05-19T06:45:13.848Z,6.03
2023-05-19T06:46:17.760Z,6.93
2023-05-19T06:47:19.724Z,6.95
2023-05-19T06:48:21.351Z,5.90
2023-05-19T06:49:23.032Z,5.55
2023-05-19T06:50:25.484Z,6.05
2023-05-19T06:51:27.291Z,5.47
2023-05-19T06:52:28.955Z,5.55
2023-05-19T06:53:31.112Z,5.05
2023-05-19T06:54:32.780Z,5.53
2023-05-19T06:55:43.941Z,5.30
2023-05-19T06:56:52.330Z,5.68
2023-05-19T06:57:53.920Z,5.28
2023-05-19T06:58:55.549Z,5.53
2023-05-19T06:59:57.176Z,5.18
2023-05-19T07:00:58.736Z,6.18
2023-05-19T07:02:02.415Z,5.50
2023-05-19T07:03:04.318Z,5.78
2023-05-19T07:04:06.254Z,5.68
2023-05-19T07:05:08.303Z,5.20
2023-05-19T07:06:09.987Z,5.30
2023-05-19T07:07:11.583Z,5.70
2023-05-19T07:08:13.191Z,5.88
2023-05-19T07:09:14.757Z,5.88
2023-05-19T07:10:17.010Z,5.97
2023-05-19T07:11:18.580Z,5.97
2023-05-19T07:12:20.119Z,5.72
2023-05-19T07:13:22.105Z,5.57
2023-05-19T07:14:23.716Z,5.47
2023-05-19T07:15:25.693Z,5.55
2023-05-19T07:16:27.337Z,5.30
2023-05-19T07:17:28.932Z,5.68
2023-05-19T07:18:33.372Z,6.05
2023-05-19T07:19:34.985Z,5.38
2023-05-19T07:20:36.570Z,6.18
2023-05-19T07:21:38.224Z,5.68
2023-05-19T07:22:40.193Z,5.22
2023-05-19T07:23:41.922Z,5.15
2023-05-19T07:24:43.460Z,5.38
2023-05-19T07:25:45.051Z,5.35
2023-05-19T07:26:46.773Z,5.18
2023-05-19T07:27:48.314Z,5.47
2023-05-19T07:28:50.013Z,5.65
2023-05-19T07:29:51.626Z,6.50
2023-05-19T07:30:53.224Z,5.25
2023-05-19T07:31:57.949Z,5.35
2023-05-19T07:32:59.728Z,5.28
2023-05-19T07:34:01.479Z,5.57
2023-05-19T07:35:03.278Z,5.53
2023-05-19T07:36:05.056Z,5.80
2023-05-19T07:37:06.650Z,5.45
2023-05-19T07:38:08.242Z,6.28
2023-05-19T07:39:10.466Z,7.18
2023-05-19T07:40:12.304Z,8.80
2023-05-19T07:41:13.955Z,8.48
2023-05-19T07:42:15.554Z,8.15
2023-05-19T07:43:17.297Z,8.10
2023-05-19T07:44:19.279Z,8.32
2023-05-19T07:45:20.845Z,8.10
2023-05-19T07:46:22.546Z,7.65
2023-05-19T07:47:24.220Z,7.15
2023-05-19T07:48:25.997Z,7.18
2023-05-19T07:49:27.602Z,6.40
2023-05-19T07:50:29.223Z,7.22
2023-05-19T07:51:31.801Z,6.72
2023-05-19T07:52:33.474Z,7.72
2023-05-19T07:53:35.102Z,6.55
2023-05-19T07:54:36.755Z,6.45
2023-05-19T07:55:38.361Z,6.38
2023-05-19T07:56:40.080Z,6.30
2023-05-19T07:57:41.678Z,6.75
2023-05-19T07:58:43.337Z,7.15
2023-05-19T07:59:45.523Z,7.10
2023-05-19T08:00:47.113Z,6.63
2023-05-19T08:01:49.217Z,8.05
2023-05-19T08:02:51.349Z,7.82
2023-05-19T08:03:53.247Z,6.95
2023-05-19T08:04:55.057Z,6.85
2023-05-19T08:05:56.832Z,7.30
2023-05-19T08:06:58.600Z,7.75
2023-05-19T08:08:00.169Z,7.07
2023-05-19T08:09:01.957Z,7.13
2023-05-19T08:10:04.199Z,6.65
2023-05-19T08:11:06.653Z,7.05
2023-05-19T08:12:08.352Z,6.85
2023-05-19T08:13:09.937Z,6.70
2023-05-19T08:14:11.491Z,6.75
2023-05-19T08:15:13.139Z,6.78
2023-05-19T08:16:16.223Z,6.28
2023-05-19T08:17:17.936Z,6.85
2023-05-19T08:18:20.174Z,7.28
2023-05-19T08:19:21.862Z,7.00
2023-05-19T08:20:24.448Z,7.03
2023-05-19T08:21:26.058Z,6.93
2023-05-19T08:22:28.123Z,7.75
2023-05-19T08:23:29.851Z,6.68
2023-05-19T08:24:32.915Z,6.50
2023-05-19T08:25:40.981Z,6.60
2023-05-19T08:26:44.429Z,6.15
2023-05-19T08:27:46.138Z,6.72
2023-05-19T08:28:47.810Z,6.10
2023-05-19T08:29:49.522Z,6.30
2023-05-19T08:31:00.076Z,6.15
2023-05-19T08:32:02.814Z,6.18
2023-05-19T08:33:04.489Z,5.70
2023-05-19T08:34:06.198Z,6.35
2023-05-19T08:35:08.498Z,6.63
2023-05-19T08:36:16.257Z,6.28
2023-05-19T08:37:17.843Z,6.20
2023-05-19T08:38:19.432Z,6.40
2023-05-19T08:39:26.574Z,6.35
2023-05-19T08:40:31.530Z,6.38
2023-05-19T08:44:36.525Z,6.43
2023-05-19T08:45:43.133Z,7.05
2023-05-19T08:46:44.998Z,6.72
2023-05-19T08:47:47.463Z,7.07
2023-05-19T08:48:54.279Z,6.68
2023-05-19T08:51:42.849Z,7.22
2023-05-19T08:53:31.929Z,7.18
2023-05-19T08:54:46.033Z,7.50
2023-05-19T08:55:53.367Z,7.63
2023-05-19T08:56:55.619Z,7.20
2023-05-19T08:57:57.390Z,7.47
2023-05-19T08:59:00.491Z,7.60
2023-05-19T09:00:09.183Z,7.50
2023-05-19T09:01:14.503Z,6.75
2023-05-19T09:02:16.726Z,7.32
2023-05-19T09:04:28.400Z,7.93
2023-05-19T09:05:32.614Z,7.30
2023-05-19T09:06:34.913Z,6.75
2023-05-19T09:07:37.951Z,7.53
2023-05-19T09:08:41.020Z,6.78
2023-05-19T09:09:44.119Z,6.38
2023-05-19T09:10:45.815Z,6.80
2023-05-19T09:11:47.493Z,7.57
2023-05-19T09:12:49.899Z,7.40
2023-05-19T09:13:51.991Z,7.20
2023-05-19T09:14:53.947Z,7.75
2023-05-19T09:15:57.476Z,7.07
2023-05-19T09:16:59.204Z,7.22
2023-05-19T09:18:14.199Z,7.30
2023-05-19T09:19:16.104Z,7.18
2023-05-19T09:20:17.759Z,6.65
2023-05-19T09:21:19.430Z,7.45
2023-05-19T09:22:21.219Z,7.30
2023-05-19T09:23:24.979Z,7.28
2023-05-19T09:24:27.626Z,7.32
2023-05-19T09:25:29.256Z,7.85
2023-05-19T09:26:43.093Z,7.38
2023-05-19T09:27:46.927Z,7.28
2023-05-19T09:28:48.677Z,7.97
2023-05-19T09:29:51.007Z,7.55
2023-05-19T09:31:09.309Z,7.18
2023-05-19T09:32:11.106Z,7.47
2023-05-19T09:33:19.499Z,7.35
2023-05-19T09:34:22.471Z,7.47
2023-05-19T09:35:24.091Z,7.47
2023-05-19T09:36:25.801Z,7.85
2023-05-19T09:37:28.016Z,7.95
2023-05-19T09:38:29.793Z,7.70
2023-05-19T09:39:32.845Z,7.40
2023-05-19T09:40:34.538Z,7.22
2023-05-19T09:41:36.220Z,7.65
2023-05-19T09:42:39.112Z,7.57
2023-05-19T09:43:40.698Z,7.65
2023-05-19T09:44:42.621Z,8.15
2023-05-19T09:45:44.442Z,7.32
2023-05-19T09:46:53.279Z,7.50
2023-05-19T09:47:54.906Z,6.97
2023-05-19T09:48:59.618Z,7.65
2023-05-19T09:50:01.206Z,7.55
2023-05-19T09:51:07.938Z,7.22
2023-05-19T09:52:11.184Z,6.97
2023-05-19T09:53:17.469Z,6.95
2023-05-19T09:54:20.553Z,6.80
2023-05-19T09:55:26.978Z,6.82
2023-05-19T09:56:34.515Z,7.20
2023-05-19T09:57:37.306Z,6.88
2023-05-19T09:58:42.318Z,6.20
2023-05-19T09:59:44.744Z,7.53
2023-05-19T10:00:47.852Z,6.97
2023-05-19T10:01:49.682Z,6.40
2023-05-19T10:02:51.738Z,6.95
2023-05-19T10:03:53.765Z,7.32
2023-05-19T10:04:55.937Z,6.90
2023-05-19T10:05:57.766Z,7.07
2023-05-19T10:07:00.213Z,7.25
2023-05-19T10:08:03.172Z,7.13
2023-05-19T10:09:05.584Z,6.57
2023-05-19T10:10:09.794Z,6.80
2023-05-19T10:11:12.251Z,7.00
2023-05-19T10:12:13.933Z,6.32
2023-05-19T10:13:16.749Z,6.60
2023-05-19T10:14:19.266Z,6.55
2023-05-19T10:15:23.194Z,6.50
2023-05-19T10:16:26.768Z,7.22
2023-05-19T10:17:29.058Z,6.47
2023-05-19T10:18:32.727Z,6.65
2023-05-19T10:19:36.494Z,7.75
2023-05-19T10:20:40.175Z,6.82
2023-05-19T10:21:41.760Z,6.88
2023-05-19T10:22:47.119Z,6.90
2023-05-19T10:23:48.752Z,7.05
2023-05-19T10:24:50.424Z,7.40
2023-05-19T10:25:57.304Z,6.38
2023-05-19T10:27:05.558Z,7.05
2023-05-19T10:28:11.622Z,7.10
2023-05-19T10:29:17.656Z,6.95
2023-05-19T10:30:26.462Z,7.57
2023-05-19T10:31:28.652Z,7.13
2023-05-19T10:32:32.717Z,7.30
2023-05-19T10:34:14.240Z,7.47
2023-05-19T10:36:08.380Z,7.22
2023-05-19T10:37:21.703Z,7.03
2023-05-19T10:38:35.120Z,7.40
2023-05-19T10:39:36.865Z,7.18
2023-05-19T10:41:11.693Z,6.47
2023-05-19T10:42:24.278Z,7.40
2023-05-19T10:43:36.299Z,7.30
2023-05-19T10:44:58.498Z,7.22
2023-05-19T10:46:00.169Z,7.00
2023-05-19T10:47:02.036Z,7.40
2023-05-19T10:48:04.582Z,7.13
2023-05-19T10:49:08.022Z,6.65
2023-05-19T10:50:10.691Z,6.95
2023-05-19T10:51:12.472Z,7.18
2023-05-19T10:52:26.201Z,7.30
2023-05-19T10:53:32.711Z,7.28
2023-05-19T10:54:46.857Z,7.30
2023-05-19T10:55:53.459Z,6.75
2023-05-19T10:56:57.052Z,6.90
2023-05-19T10:57:58.651Z,6.85
2023-05-19T10:59:01.287Z,7.05
2023-05-19T11:00:11.724Z,6.68
2023-05-19T11:01:15.136Z,7.07
2023-05-19T11:02:43.262Z,6.93
2023-05-19T11:03:50.097Z,6.85
2023-05-19T11:04:52.399Z,7.07
2023-05-19T11:06:14.022Z,7.43
2023-05-19T11:07:22.479Z,7.05
2023-05-19T11:08:34.982Z,7.10
2023-05-19T11:09:43.041Z,7.25
2023-05-19T11:10:46.662Z,6.80
2023-05-19T11:11:54.662Z,7.18
2023-05-19T11:12:58.246Z,6.97
2023-05-19T11:14:00.397Z,7.10
2023-05-19T11:15:03.359Z,7.40
2023-05-19T11:16:09.105Z,6.65
2023-05-19T11:17:15.634Z,6.78
2023-05-19T11:18:17.438Z,6.90
2023-05-19T11:19:25.502Z,7.05
2023-05-19T11:20:28.790Z,7.10
2023-05-19T11:21:52.288Z,6.97
2023-05-19T11:23:23.879Z,6.60
2023-05-19T11:24:46.409Z,6.82
2023-05-19T11:25:51.148Z,6.68
2023-05-19T11:26:54.858Z,7.30
2023-05-19T11:27:56.828Z,7.80
2023-05-19T11:30:34.029Z,7.25
2023-05-19T11:31:36.499Z,6.63
2023-05-19T11:32:44.352Z,7.13
2023-05-19T11:33:46.235Z,7.32
2023-05-19T11:34:49.491Z,7.53
2023-05-19T11:35:52.136Z,7.43
2023-05-19T11:36:53.807Z,7.10
2023-05-19T11:37:56.240Z,7.65
2023-05-19T11:38:59.922Z,7.35
2023-05-19T11:40:02.394Z,7.82
2023-05-19T11:42:39.970Z,7.80
2023-05-19T11:43:42.123Z,7.55
2023-05-19T11:44:47.724Z,7.40
2023-05-19T11:45:49.686Z,7.82
2023-05-19T11:46:51.809Z,7.50
2023-05-19T11:48:03.157Z,7.22
2023-05-19T11:49:05.373Z,7.65
2023-05-19T11:50:07.749Z,7.18
2023-05-19T11:51:09.402Z,7.43
2023-05-19T11:52:11.897Z,8.02
2023-05-19T11:53:14.275Z,7.35
2023-05-19T11:54:19.308Z,6.82
2023-05-19T11:55:22.503Z,7.05
2023-05-19T11:56:24.097Z,8.20
2023-05-19T11:57:25.791Z,7.95
2023-05-19T11:58:28.246Z,7.07
2023-05-19T11:59:37.811Z,7.15
2023-05-19T12:00:40.909Z,8.05
2023-05-19T12:01:42.749Z,7.32
2023-05-19T12:02:44.365Z,7.47
2023-05-19T12:03:46.554Z,6.82
2023-05-19T12:04:51.773Z,6.90
2023-05-19T12:05:54.042Z,7.15
2023-05-19T12:06:55.776Z,6.78
2023-05-19T12:07:57.769Z,6.85
2023-05-19T12:09:00.056Z,6.78
2023-05-19T12:10:01.819Z,6.93
2023-05-19T12:11:04.552Z,7.10
2023-05-19T12:12:06.311Z,7.43
2023-05-19T12:13:09.957Z,6.72
2023-05-19T12:14:13.016Z,6.70
2023-05-19T12:15:14.682Z,7.20
2023-05-19T12:16:19.814Z,6.57
2023-05-19T12:17:23.941Z,6.60
2023-05-19T12:18:30.691Z,6.65
2023-05-19T12:19:32.558Z,6.38
2023-05-19T12:20:36.133Z,6.93
2023-05-19T12:21:38.506Z,6.10
2023-05-19T12:22:40.399Z,6.80
2023-05-19T12:23:42.655Z,6.22
2023-05-19T12:24:47.103Z,6.07
2023-05-19T12:25:49.349Z,6.68
2023-05-19T12:26:50.949Z,6.97
2023-05-19T12:27:58.082Z,7.05
2023-05-19T12:29:00.037Z,7.63
2023-05-19T12:30:03.699Z,7.25
2023-05-19T12:31:06.066Z,6.95
2023-05-19T12:32:09.155Z,7.05
2023-05-19T12:33:11.944Z,7.05
2023-05-19T12:34:14.026Z,6.68
2023-05-19T12:35:15.943Z,7.03
2023-05-19T12:36:18.435Z,7.18
2023-05-19T12:37:20.044Z,6.28
2023-05-19T12:38:22.971Z,6.63
2023-05-19T12:39:24.828Z,6.63
2023-05-19T12:40:29.367Z,6.38
2023-05-19T12:41:31.016Z,6.95
2023-05-19T12:42:32.735Z,6.60
2023-05-19T12:43:34.273Z,6.60
2023-05-19T12:44:43.879Z,6.45
2023-05-19T12:45:45.574Z,5.63
2023-05-19T12:46:47.229Z,6.03
2023-05-19T12:47:50.242Z,6.22
2023-05-19T12:48:51.894Z,6.10
2023-05-19T12:50:13.739Z,6.57
2023-05-19T12:51:19.986Z,6.10
2023-05-19T12:52:25.383Z,5.82
2023-05-19T12:53:28.100Z,6.30
2023-05-19T12:54:35.535Z,5.80
2023-05-19T12:55:45.645Z,6.30
2023-05-19T12:56:55.014Z,6.18
2023-05-19T12:57:58.388Z,5.82
2023-05-19T12:59:01.986Z,6.03
2023-05-19T13:00:15.408Z,6.00
2023-05-19T13:01:18.617Z,5.80
2023-05-19T13:02:21.412Z,6.15
2023-05-19T13:03:23.131Z,5.75
2023-05-19T13:04:26.133Z,5.53
2023-05-19T13:05:29.403Z,6.05
2023-05-19T13:06:32.824Z,5.70
2023-05-19T13:07:35.745Z,5.90
2023-05-19T13:08:41.223Z,5.78
2023-05-19T13:09:42.813Z,5.82
2023-05-19T13:10:45.999Z,6.40
2023-05-19T13:11:54.864Z,5.80
2023-05-19T13:12:57.635Z,5.82
2023-05-19T13:13:59.224Z,6.18
2023-05-19T13:15:01.955Z,6.07
2023-05-19T13:16:03.639Z,6.05
2023-05-19T13:17:06.361Z,6.13
2023-05-19T13:18:10.328Z,6.60
2023-05-19T13:19:25.026Z,6.38
2023-05-19T13:20:28.637Z,6.65
2023-05-19T13:21:30.415Z,5.95
2023-05-19T13:22:32.044Z,6.68
2023-05-19T13:23:34.846Z,6.20
2023-05-19T13:24:36.493Z,5.82
2023-05-19T13:25:38.098Z,6.07
2023-05-19T13:26:41.641Z,6.10
2023-05-19T13:27:45.809Z,6.40
2023-05-19T13:28:47.943Z,6.38
2023-05-19T13:29:49.644Z,6.43
2023-05-19T13:30:52.171Z,6.32
2023-05-19T13:31:54.057Z,6.60
2023-05-19T13:32:55.966Z,6.28
2023-05-19T13:33:57.752Z,6.97
2023-05-19T13:35:01.814Z,7.07
2023-05-19T13:36:03.557Z,7.13
2023-05-19T13:37:06.167Z,6.78
2023-05-19T13:38:10.515Z,6.45
2023-05-19T13:39:12.445Z,6.97
2023-05-19T13:40:15.219Z,5.97
2023-05-19T13:41:18.298Z,7.43
2023-05-19T13:42:20.007Z,7.25
2023-05-19T13:43:21.864Z,6.38
2023-05-19T13:44:25.812Z,6.78
2023-05-19T13:45:27.550Z,6.30
2023-05-19T13:46:40.964Z,6.28
2023-05-19T13:47:46.706Z,6.45
2023-05-19T13:48:48.319Z,5.95
2023-05-19T13:49:50.615Z,6.72
2023-05-19T13:50:54.358Z,6.28
2023-05-19T13:51:58.279Z,6.70
2023-05-19T13:53:00.171Z,6.07
2023-05-19T13:54:02.063Z,6.50
2023-05-19T13:55:03.938Z,6.88
2023-05-19T13:56:05.719Z,6.55
2023-05-19T13:57:07.474Z,6.45
2023-05-19T13:58:11.068Z,6.32
2023-05-19T13:59:12.959Z,6.47
2023-05-19T14:00:15.096Z,6.55
2023-05-19T14:01:16.755Z,6.80
2023-05-19T14:02:18.614Z,7.07
2023-05-19T14:03:20.785Z,6.75
2023-05-19T14:04:23.870Z,6.65
2023-05-19T14:05:27.614Z,7.22
2023-05-19T14:06:29.298Z,6.85
2023-05-19T14:07:31.233Z,7.13
2023-05-19T14:08:32.858Z,7.97
2023-05-19T14:09:34.498Z,8.02
2023-05-19T14:10:36.237Z,7.97
2023-05-19T14:11:38.033Z,8.02
2023-05-19T14:12:49.418Z,7.90
2023-05-19T14:14:00.211Z,7.80
2023-05-19T14:15:02.226Z,7.95
2023-05-19T14:16:04.203Z,8.02
2023-05-19T14:17:06.034Z,7.90
2023-05-19T14:18:07.760Z,7.40